Latest Weather Observations for Pound Creek

IDV60801

Issued at 9:31 pm EDT Wednesday 1 April 2015 (issued every 30 minutes, with the page automatically refreshed every 10 minutes)

About weather observations | Map of weather stations | Latest weather observations for VIC | Other Formats
Station Details ID: 085099 Name: POUND CREEK Lat: -38.63 Lon: 145.81 Height: 3.0 m
Data from the previous 72 hours. | See also: Recent months at Pound Creek
Date/Time
EDT
Temp
°C
App
Temp
°C
Dew
Point
Rel
Hum
%
Delta-T
°C
Wind Press
QNH
hPa
Press
MSL
hPa
Rain
since 9 am
mm
Dir
 
Spd
km/h
Gust
km/h
Spd
kts
Gust
kts
01/09:30pm 22.6 21.8 12.8 54 5.6 N 9 15 5 8 1011.1 1011.1 0.0
01/09:00pm 22.6 21.9 13.1 55 5.5 N 9 15 5 8 1011.2 1011.2 0.0
01/08:30pm 22.6 21.6 13.4 56 5.3 N 11 15 6 8 1011.4 1011.4 0.0
01/08:00pm 22.4 21.8 13.5 57 5.1 NNE 9 11 5 6 1011.4 1011.4 0.0
01/07:30pm 22.7 22.6 14.0 58 5.1 NNE 7 9 4 5 1011.3 1011.3 0.0
01/07:00pm 23.8 23.5 14.5 56 5.5 NNE 9 13 5 7 1011.4 1011.4 0.0
01/06:30pm 23.9 23.9 15.1 58 5.3 NNE 9 11 5 6 1011.6 1011.6 0.0
01/06:00pm 24.9 25.5 15.2 54 5.8 N 6 9 3 5 1011.8 1011.8 0.0
01/05:30pm 25.3 25.6 15.0 53 6.2 N 7 11 4 6 1012.0 1012.0 0.0
01/05:00pm 25.9 26.1 14.7 50 6.7 N 7 11 4 6 1012.0 1012.0 0.0
01/04:30pm 26.7 26.3 14.1 46 7.5 NNW 9 13 5 7 1012.3 1012.3 0.0
01/04:00pm 26.9 26.2 14.3 46 7.5 NNW 11 20 6 11 1012.5 1012.5 0.0
01/03:30pm 26.8 24.6 13.2 43 8.0 NNW 17 28 9 15 1012.9 1012.9 0.0
01/03:00pm 27.1 24.1 12.7 41 8.4 NNW 20 32 11 17 1013.3 1013.3 0.0
01/02:30pm 28.1 24.8 12.8 38 9.0 NNW 22 35 12 19 1013.8 1013.8 0.0
01/02:00pm 27.5 24.7 13.1 41 8.5 NNW 20 33 11 18 1014.2 1014.2 0.0
01/01:30pm 28.1 25.4 13.6 41 8.6 NNW 20 33 11 18 1014.8 1014.8 0.0
01/01:00pm 26.4 24.7 13.5 45 7.6 N 15 28 8 15 1015.3 1015.3 0.0
01/12:30pm 26.2 24.1 13.7 46 7.4 N 17 28 9 15 1015.9 1015.9 0.0
01/12:00pm 25.5 22.6 12.4 44 7.5 N 19 30 10 16 1016.4 1016.4 0.0
01/11:30am 25.8 24.4 13.3 46 7.3 N 13 22 7 12 1017.0 1017.0 0.0
01/11:00am 24.6 23.2 13.5 50 6.5 N 13 17 7 9 1017.4 1017.4 0.0
01/10:30am 23.2 21.6 12.8 52 6.0 N 13 20 7 11 1017.7 1017.7 0.0
01/10:00am 22.8 20.9 11.8 50 6.2 N 13 20 7 11 1018.0 1018.0 0.0
01/09:30am 21.1 20.6 13.8 63 4.2 NNE 9 13 5 7 1018.3 1018.3 0.0
01/09:00am 17.3 16.2 13.0 76 2.4 NE 11 17 6 9 1018.6 1018.6 0.0
01/08:30am 16.5 15.0 13.0 80 1.9 NE 13 19 7 10 1018.5 1018.5 0.0
01/08:00am 16.1 15.1 13.4 84 1.5 NNE 11 17 6 9 1018.4 1018.4 0.0
01/07:30am 14.1 14.0 13.8 98 0.2 NNE 7 15 4 8 1018.4 1018.4 0.0
01/07:00am 11.5 11.7 10.6 94 0.5 CALM 0 0 0 0 1018.5 1018.5 0.0
01/06:30am 11.9 12.2 10.8 93 0.6 CALM 0 0 0 0 1018.6 1018.6 0.0
01/06:00am 12.3 11.8 10.7 90 0.8 NNW 4 6 2 3 1018.7 1018.7 0.0
01/05:30am 14.5 14.2 12.7 89 1.0 W 6 7 3 4 1018.8 1018.8 0.0
01/05:00am 15.5 14.9 13.5 88 1.1 N 9 13 5 7 1018.8 1018.8 0.0
01/04:30am 16.3 14.4 14.1 87 1.2 NNE 17 22 9 12 1018.6 1018.6 0.0
01/04:00am 16.6 15.2 14.4 87 1.3 NNE 15 20 8 11 1018.9 1018.9 0.0
01/03:30am 16.6 14.7 14.2 86 1.4 NNE 17 22 9 12 1019.4 1019.4 0.0
01/03:00am 16.7 15.3 14.5 87 1.3 NNE 15 20 8 11 1019.8 1019.8 0.0
01/02:30am 15.8 15.9 14.5 92 0.7 NNE 7 13 4 7 1020.4 1020.4 0.0
01/02:00am 13.9 14.5 13.0 94 0.5 NE 2 11 1 6 1020.6 1020.6 0.0
01/01:30am 14.3 14.9 13.0 92 0.7 ENE 2 2 1 1 1021.1 1021.1 0.0
01/01:00am 14.0 14.2 11.9 87 1.1 SSE 2 4 1 2 1021.4 1021.4 0.0
01/12:30am 16.6 15.7 14.8 89 1.0 NE 13 22 7 12 1021.6 1021.6 0.0
01/12:00am 16.0 15.5 15.0 94 0.6 NE 11 17 6 9 1021.8 1021.8 0.0
 
Date/Time
EDT
Temp
°C
App
Temp
°C
Dew
Point
Rel
Hum
%
Delta-T
°C
Wind Press
QNH
hPa
Press
MSL
hPa
Rain
since 9 am
mm
Dir
 
Spd
km/h
Gust
km/h
Spd
kts
Gust
kts
31/11:30pm 14.2 14.6 13.7 97 0.3 NE 4 9 2 5 1022.1 1022.1 0.0
31/11:00pm 10.9 10.7 10.3 96 0.3 ENE 2 6 1 3 1022.2 1022.2 0.0
31/10:30pm 11.8 12.1 11.0 95 0.4 CALM 0 0 0 0 1022.5 1022.5 0.0
31/10:00pm 11.6 11.8 10.5 93 0.6 CALM 0 2 0 1 1022.8 1022.8 0.0
31/09:30pm 12.7 13.2 11.6 93 0.6 CALM 0 0 0 0 1022.8 1022.8 0.0
31/09:00pm 14.1 13.9 13.0 93 0.6 NNE 6 7 3 4 1022.8 1022.8 0.0
31/08:30pm 14.4 14.8 12.6 89 1.0 E 2 4 1 2 1022.7 1022.7 0.0
31/08:00pm 15.4 15.1 13.2 87 1.2 ESE 7 9 4 5 1022.6 1022.6 0.0
31/07:30pm 16.1 15.9 13.0 82 1.7 ESE 6 7 3 4 1022.4 1022.4 0.0
31/07:00pm 18.0 17.5 13.7 76 2.4 SE 9 13 5 7 1022.5 1022.5 0.0
31/06:30pm 19.3 18.2 14.3 73 2.9 ESE 13 19 7 10 1022.4 1022.4 0.0
31/06:00pm 20.4 19.7 14.3 68 3.5 SE 11 17 6 9 1022.5 1022.5 0.0
31/05:30pm 21.1 19.6 14.3 65 4.0 SE 15 20 8 11 1022.5 1022.5 0.0
31/05:00pm 20.6 19.1 15.2 71 3.2 SSW 17 20 9 11 1022.5 1022.5 0.0
31/04:30pm 21.1 19.9 15.0 68 3.6 S 15 19 8 10 1022.9 1022.9 0.0
31/04:00pm 20.8 19.4 14.5 67 3.7 SSW 15 19 8 10 1023.2 1023.2 0.0
31/03:30pm 21.2 19.3 14.1 64 4.1 S 17 20 9 11 1023.2 1023.2 0.0
31/03:00pm 21.2 19.5 14.6 66 3.9 S 17 20 9 11 1023.3 1023.3 0.0
31/02:30pm 20.7 18.2 14.1 66 3.8 S 20 24 11 13 1023.8 1023.8 0.0
31/02:00pm 22.0 21.6 14.1 61 4.6 SE 9 24 5 13 1023.8 1023.8 0.0
31/01:30pm 22.6 22.2 12.5 53 5.7 N 6 9 3 5 1024.2 1024.2 0.0
31/01:00pm 21.6 21.1 12.5 56 5.1 N 7 13 4 7 1024.7 1024.7 0.0
31/12:30pm 21.4 21.1 13.3 60 4.6 ENE 7 13 4 7 1025.0 1025.0 0.0
31/12:00pm 21.0 20.8 13.7 63 4.2 NE 7 13 4 7 1025.8 1025.8 0.0
31/11:30am 19.6 20.1 15.0 75 2.7 E 6 11 3 6 1026.4 1026.4 0.0
31/11:00am 17.8 19.2 16.3 91 0.9 S 4 7 2 4 1027.1 1027.1 0.0
31/10:30am 15.1 16.7 14.8 98 0.2 CALM 0 0 0 0 1027.3 1027.3 0.0
31/10:00am 13.3 14.3 13.1 99 0.1 CALM 0 0 0 0 1027.1 1027.1 0.0
31/09:30am 11.4 11.8 11.2 99 0.1 CALM 0 0 0 0 1027.0 1027.0 0.0
31/09:00am 9.6 9.5 9.5 99 0.0 CALM 0 0 0 0 1027.2 1027.2 0.0
31/08:30am 6.9 6.2 6.8 99 0.0 CALM 0 0 0 0 1026.8 1026.8 0.0
31/08:00am 5.8 4.8 5.7 99 0.0 CALM 0 0 0 0 1026.6 1026.6 0.0
31/07:30am 5.2 4.1 4.9 98 0.1 CALM 0 0 0 0 1026.2 1026.2 0.0
31/07:00am 5.9 4.5 5.6 98 0.1 NNW 2 4 1 2 1025.9 1025.9 0.0
31/06:30am 5.9 4.9 5.8 99 0.0 CALM 0 0 0 0 1025.6 1025.6 0.0
31/06:00am 5.8 4.8 5.5 98 0.1 CALM 0 0 0 0 1025.7 1025.7 0.0
31/05:30am 5.5 4.4 5.2 98 0.1 CALM 0 0 0 0 1025.6 1025.6 0.0
31/05:00am 6.0 5.0 5.6 97 0.2 CALM 0 0 0 0 1025.4 1025.4 0.0
31/04:30am 5.7 4.3 5.4 98 0.1 N 2 4 1 2 1025.5 1025.5 0.0
31/04:00am 6.7 5.9 6.4 98 0.1 CALM 0 0 0 0 1025.7 1025.7 0.0
31/03:30am 6.4 5.5 6.0 97 0.2 CALM 0 0 0 0 1025.8 1025.8 0.0
31/03:00am 7.2 6.1 6.8 97 0.2 N 2 4 1 2 1026.0 1026.0 0.0
31/02:30am 6.5 5.6 5.9 96 0.3 CALM 0 0 0 0 1026.2 1026.2 0.0
31/02:00am 8.5 8.1 8.1 97 0.2 CALM 0 0 0 0 1026.3 1026.3 0.0
31/01:30am 9.2 8.9 8.7 97 0.2 CALM 0 0 0 0 1026.3 1026.3 0.0
31/01:00am 10.7 10.0 10.2 97 0.3 NNE 4 6 2 3 1026.3 1026.3 0.0
31/12:30am 10.4 10.0 9.9 97 0.3 NNE 2 6 1 3 1026.4 1026.4 0.0
31/12:00am 10.6 9.9 10.1 97 0.3 NE 4 6 2 3 1026.5 1026.5 0.0
 
Date/Time
EDT
Temp
°C
App
Temp
°C
Dew
Point
Rel
Hum
%
Delta-T
°C
Wind Press
QNH
hPa
Press
MSL
hPa
Rain
since 9 am
mm
Dir
 
Spd
km/h
Gust
km/h
Spd
kts
Gust
kts
30/11:30pm 11.8 11.1 11.5 98 0.2 N 6 7 3 4 1026.5 1026.5 0.0
30/11:00pm 10.3 9.1 9.7 96 0.3 N 6 7 3 4 1026.7 1026.7 0.0
30/10:30pm 10.5 9.8 9.9 96 0.3 NNE 4 6 2 3 1026.6 1026.6 0.0
30/10:00pm 10.6 9.8 9.8 95 0.4 NNE 4 4 2 2 1026.7 1026.7 0.0
30/09:30pm 11.7 10.9 10.9 95 0.4 N 6 7 3 4 1026.5 1026.5 0.0
30/09:00pm 11.6 11.4 10.5 93 0.6 N 2 4 1 2 1026.3 1026.3 0.0
30/08:30pm 12.9 13.4 11.6 92 0.7 CALM 0 0 0 0 1026.1 1026.1 0.0
30/08:00pm 14.1 14.9 12.7 91 0.8 CALM 0 0 0 0 1025.7 1025.7 0.0
30/07:30pm 14.7 15.5 12.4 86 1.3 CALM 0 0 0 0 1025.4 1025.4 0.0
30/07:00pm 16.4 15.9 12.8 79 2.0 SSW 7 9 4 5 1025.0 1025.0 0.0
30/06:30pm 17.6 16.9 13.1 75 2.5 SW 9 13 5 7 1024.7 1024.7 0.0
30/06:00pm 18.3 17.7 13.4 73 2.8 SW 9 13 5 7 1024.4 1024.4 0.0
30/05:30pm 18.7 17.3 13.3 71 3.1 SSW 13 17 7 9 1024.1 1024.1 0.0
30/05:00pm 19.2 17.4 13.4 69 3.3 SSW 15 17 8 9 1024.0 1024.0 0.0
30/04:30pm 19.6 18.0 12.8 65 3.8 SW 13 17 7 9 1023.9 1023.9 0.0
30/04:00pm 19.8 17.1 11.6 59 4.5 SW 17 20 9 11 1023.9 1023.9 0.0
30/03:30pm 20.2 18.1 13.6 66 3.8 SW 17 22 9 12 1024.1 1024.1 0.0
30/03:00pm 19.6 17.6 13.8 69 3.3 SW 17 22 9 12 1024.0 1024.0 0.0
30/02:30pm 19.9 17.7 14.5 71 3.1 SSW 19 24 10 13 1024.1 1024.1 0.0
30/02:00pm 20.3 18.3 14.0 67 3.6 SW 17 24 9 13 1024.2 1024.2 0.0
30/01:30pm 19.6 16.8 13.1 66 3.7 SW 20 24 11 13 1024.4 1024.4 0.0
30/01:00pm 19.5 15.9 12.0 62 4.1 SW 22 28 12 15 1024.5 1024.5 0.0
30/12:30pm 20.0 17.1 12.3 61 4.3 SSW 19 24 10 13 1024.7 1024.7 0.0
30/12:00pm 20.2 18.0 13.2 64 4.0 SW 17 20 9 11 1024.7 1024.7 0.0
30/11:30am 19.9 18.8 11.9 60 4.4 WSW 9 17 5 9 1024.8 1024.8 0.0
30/11:00am 19.4 18.7 11.4 60 4.4 WNW 6 11 3 6 1024.8 1024.8 0.0
30/10:30am 19.2 20.1 12.9 67 3.5 CALM 0 6 0 3 1024.7 1024.7 0.0
30/10:00am 17.1 17.3 13.0 77 2.3 N 4 6 2 3 1024.6 1024.6 0.0
30/09:30am 15.1 14.7 12.4 84 1.5 NNE 6 9 3 5 1024.4 1024.4 0.0
30/09:00am 13.7 14.1 12.6 93 0.6 NE 2 4 1 2 1024.2 1024.2 0.0
30/08:30am 10.3 9.5 9.7 96 0.3 N 4 6 2 3 1024.0 1024.0 0.0
30/08:00am 8.3 7.0 7.7 96 0.3 N 4 7 2 4 1023.7 1023.7 0.0
30/07:30am 7.5 6.4 6.8 95 0.3 NE 2 4 1 2 1023.4 1023.4 0.0
30/07:00am 8.2 6.8 7.4 95 0.4 NNE 4 7 2 4 1023.3 1023.3 0.0
30/06:30am 8.4 7.8 7.6 95 0.4 CALM 0 0 0 0 1023.0 1023.0 0.0
30/06:00am 8.0 6.6 7.1 94 0.4 ESE 4 7 2 4 1022.9 1022.9 0.0
30/05:30am 9.3 7.9 8.7 96 0.3 NNE 6 11 3 6 1022.7 1022.7 0.0
30/05:00am 7.0 6.1 6.1 94 0.4 CALM 0 0 0 0 1022.8 1022.8 0.0
30/04:30am 7.7 6.2 6.6 93 0.5 N 4 7 2 4 1022.7 1022.7 0.0
30/04:00am 8.6 7.6 7.5 93 0.5 NNE 2 6 1 3 1022.6 1022.6 0.0
30/03:30am 8.9 7.6 7.7 92 0.6 NNE 4 7 2 4 1022.8 1022.8 0.0
30/03:00am 10.0 8.6 8.8 92 0.6 N 6 9 3 5 1023.0 1023.0 0.0
30/02:30am 10.8 8.3 9.6 92 0.6 N 13 17 7 9 1023.2 1023.2 0.0
30/02:00am 10.8 7.5 9.6 92 0.6 N 17 20 9 11 1023.3 1023.3 0.0
30/01:30am 10.7 7.8 9.5 92 0.6 N 15 19 8 10 1023.3 1023.3 0.0
30/01:00am 10.9 8.7 9.5 91 0.7 N 11 15 6 8 1023.5 1023.5 0.0
30/12:30am 11.3 10.0 9.9 91 0.7 N 7 11 4 6 1023.5 1023.5 0.0
30/12:00am 11.4 9.7 9.7 89 0.9 N 9 13 5 7 1023.7 1023.7 0.0
 
Date/Time
EDT
Temp
°C
App
Temp
°C
Dew
Point
Rel
Hum
%
Delta-T
°C
Wind Press
QNH
hPa
Press
MSL
hPa
Rain
since 9 am
mm
Dir
 
Spd
km/h
Gust
km/h
Spd
kts
Gust
kts
29/11:30pm 12.3 10.5 10.7 90 0.8 N 11 15 6 8 1023.8 1023.8 0.0
29/11:00pm 10.9 9.7 9.7 92 0.6 N 6 9 3 5 1023.9 1023.9 0.0
29/10:30pm 11.1 10.0 9.9 92 0.6 N 6 7 3 4 1023.9 1023.9 0.0
29/10:00pm 10.8 9.4 9.4 91 0.7 N 7 7 4 4 1023.7 1023.7 0.0

Other Formats:

Comma delimited format used in spreadsheet applications
http://www.bom.gov.au/fwo/IDV60801/IDV60801.94886.axf

JavaScript Object Notation format (JSON) in row-major order
http://www.bom.gov.au/fwo/IDV60801/IDV60801.94886.json